• Join FlightAware (Why Join?)
  • Login
  • US Flag 
05:06AM EDT


 

Airport Tracker/Info


-or-


 

Live Flight TrackerFlight Track Log ✈ EJA929 ✈ 25-Feb-2014 ✈ KLAX - KLAS

Flight Track Log - Related Links

Times and Time Zones

All times are in EST time to prevent confusion due to time zone crossing. See the EJA929 flight status page for this flight to view local times or setup timezone preferences in your user account.

Time Position Orientation Groundspeed Altitude Reporting Facility
EST Latitude Longitude Course Direction KTS MPH feet Rate Location/Type
03:43PM 33.8994 -118.5481 246° West 268 308 6,500  Level Los Angeles Center
03:44PM 33.8367 -118.5281 165° South 276 318 10,100 2,940 Climbing Los Angeles Center
03:45PM 33.8778 -118.4436 60° Northeast 316 364 12,700 2,400 Climbing Los Angeles Center
03:46PM 33.9600 -118.3867 30° Northeast 353 406 15,200 2,400 Climbing Los Angeles Center
03:48PM 34.2578 -117.8300 51° Northeast  Level FlightAware Approximate
03:48PM 34.0178 -118.2831 56° Northeast 367 422 17,700  Level Los Angeles Center
03:49PM 34.0803 -118.1733 55° Northeast 390 449 20,200 2,460 Climbing Los Angeles Center
03:50PM 34.1431 -118.0614 56° Northeast 401 461 22,800 2,280 Climbing Los Angeles Center
03:51PM 34.2092 -117.9442 56° Northeast 415 478 25,000 1,740 Climbing Los Angeles Center
03:52PM 34.2803 -117.8175 56° Northeast 448 516 26,400 960 Climbing Los Angeles Center
03:53PM 34.3733 -117.6511 56° Northeast 492 566 27,000 240 Climbing Los Angeles Center
03:54PM 34.4422 -117.5264 56° Northeast 514 592 27,000  Level Los Angeles Center
03:55PM 34.5361 -117.3569 56° Northeast 510 587 27,000  Level Los Angeles Center
03:56PM 34.6119 -117.2197 56° Northeast 498 573 27,000  Level Los Angeles Center
03:57PM 34.6858 -117.0842 56° Northeast 489 563 27,000  Level Los Angeles Center
03:58PM 34.7608 -116.9461 56° Northeast 492 566 27,000  Level Los Angeles Center
03:59PM 34.8561 -116.7703 57° Northeast 519 597 27,000 -720 Level Los Angeles Center
04:00PM 34.9361 -116.6242 56° Northeast 522 601 25,500 -1,440 Descending Los Angeles Center
04:01PM 35.0292 -116.4933 49° Northeast 512 589 24,000 -780 Descending Los Angeles Center
04:02PM 35.1225 -116.3744 46° Northeast 492 566 23,900 -1,260 Descending Los Angeles Center
04:03PM 35.2169 -116.2578 45° Northeast 487 560 21,500 -2,460 Descending Los Angeles Center
04:04PM 35.3208 -116.1253 46° Northeast 460 529 18,900 -2,280 Descending Los Angeles Center
04:05PM 35.4086 -116.0139 46° Northeast 455 524 16,900 -2,040 Descending Los Angeles Center
04:06PM 35.4881 -115.9169 45° Northeast 428 493 15,100 -1,920 Descending Los Angeles Center
04:06PM 35.4953 -115.9083 44° Northeast 450 518 14,900 -1,500 Descending Los Angeles Center
04:07PM 35.5744 -115.8053 47° Northeast 422 486 13,400 -1,500 Descending Los Angeles Center
04:07PM 35.5750 -115.8028 75° East 435 501 13,400 -420 Level Los Angeles Center
04:08PM 35.6431 -115.7225 44° Northeast 341 392 13,000 -420 Descending Los Angeles Center
04:08PM 35.6414 -115.7208 141° Southeast 376 433 13,000  Level Los Angeles Center
04:09PM 35.6964 -115.6497 46° Northeast 313 360 13,000  Level Los Angeles Center
04:09PM 35.7019 -115.6442 39° Northeast 337 388 13,000  Level Los Angeles Center
04:10PM 35.7536 -115.5839 43° Northeast 305 351 13,000  Level Los Angeles Center
04:10PM 35.7792 -115.5739 18° North 300 345 13,000  Level Los Angeles Center
04:11PM 35.8500 -115.5711 North 280 322 13,000  Level Los Angeles Center
04:11PM 35.8633 -115.5689 North 282 325 13,000  Level Los Angeles Center
04:12PM 35.9097 -115.5678 North 277 319 13,000  Level Los Angeles Center
04:12PM 35.9408 -115.5636 North 279 321 13,000 -900 Level Los Angeles Center
04:13PM 35.9822 -115.5231 38° Northeast 286 329 12,100 -1,380 Descending Los Angeles Center
04:13PM 35.9956 -115.4883 65° Northeast 283 326 11,600 -1,020 Descending Los Angeles Center
04:14PM 36.0106 -115.4342 71° East 278 320 11,100 -600 Descending Los Angeles Center
04:14PM 36.0228 -115.3994 66° East 277 319 11,000 -780 Descending Los Angeles Center
04:15PM 36.0256 -115.3336 87° East 284 327 10,300 -1,260 Descending Los Angeles Center
04:15PM 36.0247 -115.2953 92° East 287 330 9,700 -1,320 Descending Los Angeles Center
04:16PM 36.0208 -115.2317 94° East 278 320 9,000 -720 Descending Los Angeles Center
04:17PM 36.0192 -115.2008 94° East 279 321 9,000 -600 Level Los Angeles Center
04:17PM 36.0131 -115.1464 98° East 273 314 8,500 -1,020 Descending Los Angeles Center
04:18PM 36.0128 -115.1044 90° East 266 306 8,000 -540 Descending Los Angeles Center
04:18PM 36.0097 -115.0625 95° East 232 267 8,000 -300 Level Los Angeles Center
04:19PM 36.0231 -115.0322 61° Northeast 209 241 7,700 -1,020 Descending Los Angeles Center
04:19PM 36.0478 -115.0181 25° Northeast 209 241 7,000 -1,260 Descending Los Angeles Center
04:20PM 36.0761 -115.0189 359° North 198 228 6,400 -1,440 Descending Los Angeles Center
04:21PM 36.1158 -115.0628 318° Northwest 181 208 4,800 -1,560 Descending Los Angeles Center
04:21PM 36.1267 -115.0822 305° West 160 184 4,100 -1,560 Descending Los Angeles Center
04:22PM 36.1369 -115.1078 296° West 154 177 3,200 -1,320 Descending Los Angeles Center
04:22PM 36.1364 -115.1269 268° West 151 174 2,900 -720 Descending Los Angeles Center
04:23PM 36.1153 -115.1472 218° Southwest 143 165 2,500 -600 Descending Los Angeles Center
04:23PM 36.1053 -115.1533 206° Southwest 141 162 2,300 -660 Descending Los Angeles Center
04:25PM 36.0801 -115.1523 97° East  Level Estimated